Time;durP1;ratioP1;P1;durP2;ratioP2;P2;SDS_P1;SDS_P2;PMS_P1;PMS_P2;Temp;Humidity;BMP_temperature;BMP_pressure;BME280_temperature;BME280_humidity;BME280_pressure;Samples;Min_cycle;Max_cycle;Signal;HPM_P1;HPM_P2
2022/10/15 00:02:06;;;;;;;68.18;29.98;;;13.00;99.90;;;;;;5015372;28;20366;-80
2022/10/15 00:04:32;;;;;;;61.72;28.27;;;13.00;99.90;;;;;;5017569;28;20037;-80
2022/10/15 00:06:58;;;;;;;67.95;29.98;;;13.00;99.90;;;;;;5017239;28;20423;-81
2022/10/15 00:09:24;;;;;;;66.13;29.77;;;13.10;1.00;;;;;;5017458;28;20018;-81
2022/10/15 00:11:50;;;;;;;73.85;30.17;;;13.00;1.00;;;;;;5017161;28;20068;-81
2022/10/15 00:14:15;;;;;;;68.47;28.15;;;13.00;1.00;;;;;;5017548;28;20037;-80
2022/10/15 00:16:41;;;;;;;80.43;30.50;;;13.10;1.00;;;;;;5017135;28;20029;-81
2022/10/15 00:19:08;;;;;;;69.00;27.92;;;13.10;94.40;;;;;;5017117;28;20034;-81
2022/10/15 00:21:33;;;;;;;65.68;29.02;;;13.00;99.90;;;;;;5009085;28;20028;-80
2022/10/15 00:23:59;;;;;;;65.70;28.17;;;13.10;99.90;;;;;;4997963;28;20026;-80
2022/10/15 00:26:26;;;;;;;55.70;26.65;;;13.10;99.90;;;;;;4997228;28;20027;-80
2022/10/15 00:28:53;;;;;;;54.75;26.35;;;13.00;99.90;;;;;;4997283;28;20022;-81
2022/10/15 00:31:19;;;;;;;58.90;25.70;;;13.00;99.90;;;;;;4997440;28;20034;-81
2022/10/15 00:33:47;;;;;;;59.15;27.15;;;13.00;99.90;;;;;;4997003;28;20465;-80
2022/10/15 00:36:22;;;;;;;59.95;26.95;;;13.10;99.90;;;;;;5008941;28;20061;-81
2022/10/15 00:38:48;;;;;;;60.65;25.85;;;13.00;99.90;;;;;;5017124;28;20034;-80
2022/10/15 00:41:20;;;;;;;59.83;25.55;;;13.00;99.90;;;;;;5016522;28;20049;-80
2022/10/15 00:43:50;;;;;;;58.75;26.02;;;13.00;99.90;;;;;;5016694;28;20018;-80
2022/10/15 00:46:15;;;;;;;58.95;25.15;;;13.00;99.90;;;;;;5016535;28;20022;-81
2022/10/15 00:48:41;;;;;;;53.30;24.35;;;13.00;99.90;;;;;;5016527;28;20633;-80
2022/10/15 00:51:07;;;;;;;56.35;23.98;;;12.90;99.90;;;;;;5016402;28;20018;-80
2022/10/15 00:53:33;;;;;;;55.53;23.00;;;12.90;99.90;;;;;;5016448;28;20030;-81
2022/10/15 00:56:00;;;;;;;50.83;22.10;;;12.90;99.90;;;;;;5016385;28;20026;-80
2022/10/15 00:58:29;;;;;;;49.60;22.38;;;12.90;52.00;;;;;;5016386;28;20073;-80
2022/10/15 01:00:55;;;;;;;49.45;21.45;;;12.90;47.80;;;;;;5016187;28;20056;-80
2022/10/15 01:03:21;;;;;;;53.65;21.70;;;12.80;47.50;;;;;;5016785;28;20030;-80
2022/10/15 01:05:49;;;;;;;51.72;22.65;;;12.90;49.50;;;;;;5016110;28;20018;-80
2022/10/15 01:12:30;;;;;;;49.65;21.90;;;12.90;47.40;;;;;;5016472;28;20075;-80
2022/10/15 01:15:32;;;;;;;42.72;20.15;;;12.90;44.00;;;;;;5022554;28;20473;-80
2022/10/15 01:18:06;;;;;;;51.33;20.95;;;12.90;41.40;;;;;;5035962;28;20036;-80
2022/10/15 01:20:50;;;;;;;45.42;20.65;;;12.80;35.20;;;;;;5035771;28;20037;-80
2022/10/15 01:23:58;;;;;;;49.92;20.80;;;12.80;37.50;;;;;;5035541;28;20030;-80
2022/10/15 01:26:29;;;;;;;48.05;21.27;;;12.80;36.10;;;;;;4959487;28;20034;-80
2022/10/15 01:29:33;;;;;;;45.92;21.58;;;12.80;38.30;;;;;;4996161;28;20022;-80
2022/10/15 01:32:14;;;;;;;43.00;19.98;;;12.80;29.10;;;;;;4996606;28;20113;-81
2022/10/15 01:35:21;;;;;;;45.67;20.05;;;12.70;29.90;;;;;;4995851;28;20100;-80
2022/10/15 01:37:58;;;;;;;33.78;16.50;;;12.80;30.60;;;;;;4996000;28;20030;-80
2022/10/15 01:40:35;;;;;;;27.38;15.65;;;12.80;30.00;;;;;;5014227;28;20481;-80
2022/10/15 01:43:10;;;;;;;29.45;15.52;;;12.80;39.10;;;;;;5016267;28;20079;-80
2022/10/15 01:45:45;;;;;;;24.08;14.05;;;12.80;64.50;;;;;;5021288;28;20036;-80
2022/10/15 01:48:11;;;;;;;29.23;13.88;;;12.80;68.20;;;;;;5035133;28;20472;-80
2022/10/15 01:50:42;;;;;;;29.58;14.95;;;12.90;66.20;;;;;;5035259;28;20048;-80
2022/10/15 01:53:12;;;;;;;29.08;15.07;;;12.80;72.60;;;;;;5033940;28;20069;-80
2022/10/15 01:55:42;;;;;;;37.00;18.25;;;12.80;75.50;;;;;;5015333;28;20025;-80
2022/10/15 01:58:09;;;;;;;40.93;20.23;;;12.80;72.50;;;;;;5015351;28;20022;-80
2022/10/15 02:00:36;;;;;;;45.42;22.00;;;12.80;74.80;;;;;;5015069;28;20036;-80
2022/10/15 02:03:03;;;;;;;58.95;23.10;;;12.80;67.20;;;;;;5015316;28;20481;-80
2022/10/15 02:05:39;;;;;;;56.13;23.40;;;13.00;64.70;;;;;;5014929;28;20026;-80
2022/10/15 02:08:24;;;;;;;56.38;24.52;;;12.80;64.40;;;;;;5015195;28;20021;-80
2022/10/15 02:11:04;;;;;;;53.63;24.10;;;12.80;66.70;;;;;;5015028;28;20028;-80
2022/10/15 02:13:54;;;;;;;61.55;25.85;;;12.80;58.60;;;;;;4995759;28;20069;-80
2022/10/15 02:16:33;;;;;;;62.63;25.70;;;12.70;62.80;;;;;;4995361;28;20053;-80
2022/10/15 02:19:11;;;;;;;60.90;25.45;;;12.80;57.60;;;;;;4995264;28;20022;-80
2022/10/15 02:21:46;;;;;;;59.67;24.20;;;12.80;53.50;;;;;;5003567;28;20038;-80
2022/10/15 02:24:27;;;;;;;52.88;24.92;;;12.80;42.10;;;;;;5015027;28;20029;-80
2022/10/15 02:26:55;;;;;;;55.20;25.02;;;12.70;40.80;;;;;;5008988;28;20030;-80
2022/10/15 02:29:29;;;;;;;57.03;24.95;;;12.80;29.90;;;;;;5015624;28;20101;-80
2022/10/15 02:31:57;;;;;;;56.72;25.75;;;12.80;1.00;;;;;;5014840;28;20026;-81
2022/10/15 02:34:28;;;;;;;61.05;26.40;;;12.80;2.30;;;;;;5014011;28;20563;-80
2022/10/15 02:36:56;;;;;;;56.47;26.48;;;12.80;1.00;;;;;;5014540;28;20034;-80
2022/10/15 02:39:23;;;;;;;58.13;25.80;;;13.00;1.00;;;;;;4996864;28;20022;-80
2022/10/15 02:41:50;;;;;;;66.72;27.35;;;12.90;1.00;;;;;;5014314;28;20469;-80
2022/10/15 02:44:16;;;;;;;63.05;27.17;;;12.80;1.00;;;;;;5014320;28;20026;-80
2022/10/15 02:46:41;;;;;;;70.00;27.60;;;12.80;1.00;;;;;;5014169;28;20384;-80
2022/10/15 02:49:07;;;;;;;67.03;27.10;;;12.90;1.00;;;;;;5014235;28;20060;-80
2022/10/15 02:51:34;;;;;;;62.22;28.02;;;12.80;1.00;;;;;;5014818;28;20022;-80
2022/10/15 02:54:01;;;;;;;64.47;27.88;;;12.80;1.00;;;;;;5014095;28;20030;-80
2022/10/15 02:56:27;;;;;;;66.10;28.20;;;12.80;1.00;;;;;;5014293;28;20359;-80
2022/10/15 02:58:53;;;;;;;64.40;28.45;;;12.80;1.00;;;;;;5014142;28;20359;-80
2022/10/15 03:01:18;;;;;;;69.32;29.55;;;12.80;1.00;;;;;;5014520;28;20052;-80
2022/10/15 03:03:44;;;;;;;64.50;29.50;;;12.80;1.00;;;;;;5012500;28;20057;-80
2022/10/15 03:06:09;;;;;;;63.40;29.20;;;12.80;1.00;;;;;;4994753;28;20058;-80
2022/10/15 03:08:35;;;;;;;61.30;28.60;;;12.80;1.00;;;;;;4994448;28;20050;-80
2022/10/15 03:11:01;;;;;;;73.03;30.00;;;12.80;1.00;;;;;;4994353;28;20146;-80
2022/10/15 03:13:27;;;;;;;62.10;27.15;;;12.80;1.00;;;;;;4994990;28;20034;-80
2022/10/15 03:15:53;;;;;;;70.72;29.42;;;12.80;1.00;;;;;;4994302;28;20026;-80
2022/10/15 03:18:19;;;;;;;72.40;30.88;;;12.80;1.00;;;;;;4994197;28;20026;-80
2022/10/15 03:20:55;;;;;;;70.97;28.73;;;12.90;1.00;;;;;;4994424;28;20022;-80
2022/10/15 03:23:21;;;;;;;71.03;28.17;;;12.80;1.00;;;;;;4994431;28;20027;-80
2022/10/15 03:25:46;;;;;;;64.07;28.02;;;12.80;1.00;;;;;;4994101;28;20022;-80
2022/10/15 03:28:12;;;;;;;69.05;29.02;;;12.80;1.00;;;;;;4994161;28;20061;-80
2022/10/15 03:30:38;;;;;;;65.97;28.35;;;12.90;1.00;;;;;;4994093;28;20041;-81
2022/10/15 03:33:03;;;;;;;73.57;29.88;;;12.80;1.00;;;;;;4993920;28;20108;-81
2022/10/15 03:35:29;;;;;;;69.50;28.35;;;12.90;1.00;;;;;;4994083;28;20081;-81
2022/10/15 03:37:55;;;;;;;63.97;28.23;;;12.90;1.00;;;;;;4993712;28;20018;-81
2022/10/15 03:40:20;;;;;;;71.03;29.45;;;12.90;1.00;;;;;;5020606;28;20026;-80
2022/10/15 03:42:52;;;;;;;76.90;29.90;;;12.90;1.00;;;;;;5033638;28;20104;-80
2022/10/15 03:45:19;;;;;;;76.35;29.08;;;12.90;99.90;;;;;;5033372;28;20037;-81
2022/10/15 03:47:44;;;;;;;87.68;29.38;;;12.90;1.00;;;;;;5033245;28;20025;-80
2022/10/15 03:50:10;;;;;;;76.70;29.48;;;12.90;1.00;;;;;;5033350;28;20022;-80
2022/10/15 03:52:36;;;;;;;77.20;29.25;;;12.90;1.00;;;;;;5033145;28;20056;-80
2022/10/15 03:55:02;;;;;;;62.25;29.42;;;12.90;1.00;;;;;;5023194;28;20101;-81
2022/10/15 03:57:28;;;;;;;76.18;29.27;;;12.90;99.90;;;;;;5013401;28;20044;-80
2022/10/15 04:00:21;;;;;;;72.40;29.63;;;12.80;99.90;;;;;;5013301;28;20018;-81
2022/10/15 04:02:46;;;;;;;76.10;29.38;;;12.80;99.90;;;;;;5013653;28;20021;-81
2022/10/15 04:05:12;;;;;;;66.90;29.90;;;12.80;99.90;;;;;;5013713;28;20026;-80
2022/10/15 04:07:37;;;;;;;70.38;29.70;;;12.80;99.90;;;;;;5013603;28;20022;-80
2022/10/15 04:10:03;;;;;;;87.25;30.52;;;12.90;99.90;;;;;;5013648;28;20073;-80
2022/10/15 04:12:28;;;;;;;160.18;34.95;;;12.80;99.90;;;;;;5013261;28;20149;-80
2022/10/15 04:14:54;;;;;;;66.28;30.05;;;12.80;99.90;;;;;;5013341;28;20088;-80
2022/10/15 04:17:19;;;;;;;68.30;29.63;;;12.80;99.90;;;;;;5013183;28;20549;-80
2022/10/15 04:19:45;;;;;;;72.40;30.38;;;12.80;99.90;;;;;;4995582;28;20029;-80
2022/10/15 04:22:11;;;;;;;69.43;29.52;;;12.70;99.90;;;;;;5019403;28;20040;-80
2022/10/15 04:24:36;;;;;;;76.13;30.60;;;12.70;99.90;;;;;;5032881;28;20082;-80
2022/10/15 04:27:02;;;;;;;62.80;28.95;;;12.60;99.90;;;;;;5033390;28;20104;-80
2022/10/15 04:29:27;;;;;;;69.10;29.33;;;12.50;99.90;;;;;;5032836;28;20018;-81
2022/10/15 04:31:53;;;;;;;70.53;30.00;;;12.40;99.90;;;;;;5032826;28;20064;-81
2022/10/15 04:34:18;;;;;;;70.57;30.23;;;12.40;99.90;;;;;;5032338;28;20057;-81
2022/10/15 04:36:44;;;;;;;70.40;29.92;;;12.50;1.00;;;;;;5026994;28;20026;-81
2022/10/15 04:39:10;;;;;;;79.18;30.05;;;12.40;1.00;;;;;;5012980;28;20089;-80
2022/10/15 04:41:35;;;;;;;76.28;30.80;;;12.50;1.00;;;;;;5013381;28;20024;-80
2022/10/15 04:44:01;;;;;;;68.25;28.40;;;12.50;1.00;;;;;;5012984;28;20077;-80
2022/10/15 04:46:27;;;;;;;75.25;29.13;;;12.50;1.00;;;;;;5013115;28;20053;-80
2022/10/15 04:48:56;;;;;;;76.65;31.05;;;12.60;1.00;;;;;;5014453;28;20488;-80
2022/10/15 04:51:22;;;;;;;82.22;31.08;;;12.50;1.00;;;;;;5016791;28;20064;-80
2022/10/15 04:53:48;;;;;;;75.03;30.20;;;12.50;1.00;;;;;;5016328;28;20470;-80
2022/10/15 04:56:18;;;;;;;70.43;28.92;;;12.50;1.00;;;;;;5016530;28;20500;-80
2022/10/15 04:58:45;;;;;;;75.47;28.83;;;12.50;1.00;;;;;;5016560;28;20389;-80
2022/10/15 05:01:14;;;;;;;78.28;31.50;;;12.50;1.00;;;;;;5016237;28;20118;-78
2022/10/15 05:03:41;;;;;;;82.65;31.90;;;12.50;1.00;;;;;;5016036;28;20536;-78
2022/10/15 05:06:15;;;;;;;78.15;29.98;;;12.40;1.00;;;;;;5015953;28;20026;-78
2022/10/15 05:08:42;;;;;;;76.93;30.05;;;12.40;1.00;;;;;;5015843;28;20026;-78
2022/10/15 05:11:11;;;;;;;76.88;29.92;;;12.30;1.00;;;;;;5016200;28;20029;-78
2022/10/15 05:13:37;;;;;;;79.97;29.13;;;12.20;1.00;;;;;;5007181;28;20038;-78
2022/10/15 05:16:19;;;;;;;78.28;30.50;;;12.10;1.00;;;;;;4995831;28;20026;-78
2022/10/15 05:18:47;;;;;;;78.28;29.98;;;12.00;1.00;;;;;;5009278;28;20030;-78
2022/10/15 05:21:13;;;;;;;69.13;29.33;;;11.90;1.00;;;;;;5015785;28;20026;-78
2022/10/15 05:23:39;;;;;;;72.93;30.38;;;11.80;1.00;;;;;;5015711;28;20033;-78
2022/10/15 05:26:11;;;;;;;76.65;30.50;;;11.70;1.00;;;;;;5015479;28;20037;-78
2022/10/15 05:28:37;;;;;;;80.40;30.60;;;11.70;1.00;;;;;;5015433;28;20026;-78
2022/10/15 05:31:11;;;;;;;72.07;29.10;;;11.60;1.00;;;;;;5015569;28;20124;-79
2022/10/15 05:33:36;;;;;;;84.05;30.10;;;11.40;1.00;;;;;;4995289;28;20675;-78
2022/10/15 05:36:16;;;;;;;78.40;29.42;;;11.40;1.00;;;;;;4995684;28;20030;-77
2022/10/15 05:38:42;;;;;;;77.60;30.33;;;11.50;1.00;;;;;;4995905;28;20030;-78
2022/10/15 05:41:08;;;;;;;72.28;30.05;;;11.60;1.00;;;;;;4996193;28;20109;-81
2022/10/15 05:43:33;;;;;;;108.88;33.55;;;11.70;1.00;;;;;;4996284;28;20058;-81
2022/10/15 05:45:59;;;;;;;92.57;31.65;;;11.80;1.00;;;;;;4995925;28;20355;-80
2022/10/15 05:48:25;;;;;;;78.90;31.58;;;11.80;1.00;;;;;;4995923;28;20022;-80
2022/10/15 05:50:50;;;;;;;103.30;35.70;;;11.90;1.00;;;;;;4998571;28;20120;-80
2022/10/15 05:53:16;;;;;;;95.55;34.47;;;11.90;1.00;;;;;;5009833;28;20119;-80
2022/10/15 05:55:42;;;;;;;99.75;34.13;;;11.90;1.00;;;;;;5005966;28;20023;-80
2022/10/15 05:58:07;;;;;;;87.75;32.50;;;11.90;1.00;;;;;;4984955;28;20034;-80
2022/10/15 06:00:34;;;;;;;82.63;33.53;;;11.80;1.00;;;;;;5003943;28;20022;-80
2022/10/15 06:02:59;;;;;;;84.55;33.85;;;11.70;1.00;;;;;;5002437;28;20040;-80
2022/10/15 06:05:25;;;;;;;77.82;34.03;;;11.60;1.00;;;;;;5007596;28;20023;-80
2022/10/15 06:07:51;;;;;;;90.85;34.30;;;11.70;1.00;;;;;;4995403;28;20069;-80
2022/10/15 06:10:17;;;;;;;97.97;35.13;;;11.80;1.00;;;;;;5025149;28;20099;-80
2022/10/15 06:12:49;;;;;;;92.35;35.97;;;11.90;1.00;;;;;;5016228;28;20049;-80
2022/10/15 06:15:15;;;;;;;103.78;36.53;;;12.00;1.00;;;;;;5012600;28;20052;-80
2022/10/15 06:17:40;;;;;;;105.20;36.47;;;12.00;1.00;;;;;;4995446;28;20018;-81
2022/10/15 06:20:06;;;;;;;104.63;36.63;;;12.10;1.00;;;;;;5001445;28;20032;-80
2022/10/15 06:22:33;;;;;;;101.07;36.65;;;12.10;1.00;;;;;;5005960;28;20034;-80
2022/10/15 06:24:58;;;;;;;103.97;37.75;;;12.10;1.00;;;;;;5007024;28;20295;-81
2022/10/15 06:27:24;;;;;;;103.68;37.63;;;12.20;1.00;;;;;;4997864;28;20101;-80
2022/10/15 06:29:50;;;;;;;101.88;37.28;;;12.10;1.00;;;;;;5002074;28;20040;-80
2022/10/15 06:32:16;;;;;;;94.97;36.28;;;12.10;1.00;;;;;;4999680;28;20026;-81
2022/10/15 06:34:43;;;;;;;95.25;36.63;;;12.10;1.00;;;;;;4998632;28;20085;-81
2022/10/15 06:37:08;;;;;;;91.22;36.22;;;12.00;1.00;;;;;;4997224;28;21094;-81
2022/10/15 06:39:34;;;;;;;90.20;34.33;;;11.90;99.90;;;;;;4999676;28;20026;-80
2022/10/15 06:41:59;;;;;;;94.53;35.20;;;11.90;98.20;;;;;;4993906;28;20088;-81
2022/10/15 06:44:25;;;;;;;87.85;34.25;;;12.00;1.00;;;;;;5005137;28;20105;-80
2022/10/15 06:46:50;;;;;;;96.00;34.22;;;12.10;1.00;;;;;;5008967;28;20061;-81
2022/10/15 06:49:16;;;;;;;92.28;34.42;;;12.20;99.90;;;;;;5013098;28;20029;-80
2022/10/15 06:51:41;;;;;;;100.05;37.97;;;12.20;99.90;;;;;;5008533;28;20495;-81
2022/10/15 06:54:07;;;;;;;101.22;38.83;;;12.30;99.90;;;;;;5020445;28;20038;-80
2022/10/15 06:56:32;;;;;;;99.97;37.03;;;12.40;99.90;;;;;;5005402;28;20030;-80
2022/10/15 06:58:58;;;;;;;96.65;36.45;;;12.50;99.90;;;;;;5010568;28;20120;-80
2022/10/15 07:01:23;;;;;;;99.50;38.03;;;12.50;99.90;;;;;;5018407;28;20122;-80
2022/10/15 07:03:49;;;;;;;96.65;35.72;;;12.70;1.00;;;;;;5011170;28;20546;-80
2022/10/15 07:06:15;;;;;;;88.10;35.22;;;12.70;1.00;;;;;;5005550;28;20022;-80
2022/10/15 07:08:41;;;;;;;89.65;35.88;;;12.80;99.90;;;;;;5016847;28;20413;-80
2022/10/15 07:11:08;;;;;;;84.22;35.17;;;12.80;67.20;;;;;;5019409;28;20021;-80
2022/10/15 07:13:33;;;;;;;91.97;36.85;;;12.90;25.00;;;;;;5009929;28;20041;-79
2022/10/15 07:16:04;;;;;;;98.88;34.13;;;12.90;1.00;;;;;;4998280;28;20069;-77
2022/10/15 07:18:30;;;;;;;68.72;29.70;;;13.10;1.00;;;;;;5004304;28;20058;-78
2022/10/15 07:20:56;;;;;;;80.05;31.80;;;13.20;1.00;;;;;;5002206;28;20034;-78
2022/10/15 07:23:22;;;;;;;81.18;31.52;;;13.30;99.90;;;;;;5001168;28;20327;-77
2022/10/15 07:25:47;;;;;;;87.60;33.28;;;13.40;99.90;;;;;;4995445;28;20032;-80
2022/10/15 07:28:13;;;;;;;84.07;32.60;;;13.50;99.90;;;;;;5002712;28;20034;-80
2022/10/15 07:30:38;;;;;;;86.90;32.47;;;13.40;99.90;;;;;;5008556;28;20025;-80
2022/10/15 07:33:04;;;;;;;80.95;29.92;;;13.50;99.90;;;;;;5001070;28;20255;-81
2022/10/15 07:35:30;;;;;;;86.75;29.77;;;13.50;99.90;;;;;;5003814;28;20486;-80
2022/10/15 07:37:58;;;;;;;90.47;30.00;;;13.50;99.90;;;;;;5015781;28;20050;-80
2022/10/15 07:40:24;;;;;;;69.00;28.10;;;13.50;99.90;;;;;;5001297;28;20246;-80
2022/10/15 07:42:54;;;;;;;80.30;28.25;;;13.50;99.90;;;;;;4993942;28;20471;-80
2022/10/15 07:45:20;;;;;;;78.38;26.85;;;13.50;99.90;;;;;;4979942;28;20069;-80
2022/10/15 07:47:45;;;;;;;62.58;23.42;;;13.60;99.90;;;;;;4992106;28;20977;-80
2022/10/15 07:50:11;;;;;;;67.03;26.23;;;13.60;99.90;;;;;;4989340;28;20089;-80
2022/10/15 07:52:36;;;;;;;66.70;24.63;;;13.70;99.90;;;;;;5010225;28;20030;-80
2022/10/15 07:55:02;;;;;;;63.42;23.95;;;13.80;99.90;;;;;;5010408;28;20058;-80
2022/10/15 07:57:28;;;;;;;61.83;24.55;;;13.80;99.90;;;;;;5003528;28;20026;-80
2022/10/15 07:59:53;;;;;;;69.18;27.20;;;13.90;99.90;;;;;;5007124;28;20026;-80
2022/10/15 08:02:20;;;;;;;66.43;27.25;;;14.00;99.90;;;;;;5019966;28;20017;-80
2022/10/15 08:04:45;;;;;;;72.13;27.30;;;14.10;99.90;;;;;;5001790;28;20018;-80
2022/10/15 08:07:11;;;;;;;61.67;25.90;;;14.40;99.90;;;;;;5004136;28;20022;-79
2022/10/15 08:09:37;;;;;;;67.28;28.77;;;14.50;99.90;;;;;;5004186;28;20026;-80
2022/10/15 08:12:03;;;;;;;72.38;29.77;;;14.60;99.90;;;;;;5008805;28;20041;-80
2022/10/15 08:14:29;;;;;;;63.40;26.98;;;14.80;99.90;;;;;;5016867;28;20029;-80
2022/10/15 08:16:54;;;;;;;54.67;25.23;;;14.80;99.90;;;;;;5006578;28;20390;-80
2022/10/15 08:19:20;;;;;;;59.63;27.38;;;14.90;99.90;;;;;;5008543;28;20100;-80
2022/10/15 08:21:45;;;;;;;52.63;24.95;;;14.70;99.90;;;;;;5013956;28;20030;-80
2022/10/15 08:24:11;;;;;;;58.10;29.23;;;14.40;99.90;;;;;;5013623;28;20037;-80
2022/10/15 08:26:37;;;;;;;59.78;28.85;;;14.40;99.90;;;;;;5009141;28;20565;-80
2022/10/15 08:29:03;;;;;;;56.53;28.30;;;14.50;99.90;;;;;;5010257;28;20022;-80
2022/10/15 08:31:30;;;;;;;52.10;28.20;;;14.50;99.90;;;;;;5009018;28;20034;-80
2022/10/15 08:33:59;;;;;;;58.80;29.40;;;14.70;99.90;;;;;;4996198;28;20054;-80
2022/10/15 08:36:24;;;;;;;55.08;29.92;;;14.80;99.90;;;;;;5010876;28;20022;-80
2022/10/15 08:38:50;;;;;;;55.30;29.80;;;14.60;99.90;;;;;;5004651;28;20160;-80
2022/10/15 08:41:48;;;;;;;54.75;27.65;;;14.80;99.90;;;;;;4999917;28;20092;-80
2022/10/15 08:44:25;;;;;;;53.95;28.23;;;14.90;99.90;;;;;;4996283;28;20371;-80
2022/10/15 08:47:21;;;;;;;57.35;28.70;;;15.10;99.90;;;;;;5004688;28;20030;-80
2022/10/15 08:49:51;;;;;;;56.97;27.23;;;14.90;99.90;;;;;;4993442;28;20057;-80
2022/10/15 08:52:43;;;;;;;52.72;27.55;;;14.80;99.90;;;;;;4996960;28;20347;-80
2022/10/15 08:55:15;;;;;;;50.88;26.40;;;14.80;99.90;;;;;;5002094;28;20034;-79
2022/10/15 08:57:48;;;;;;;52.20;26.83;;;14.70;99.90;;;;;;4998540;28;20029;-78
2022/10/15 09:00:40;;;;;;;51.88;25.40;;;14.60;99.90;;;;;;5001089;28;20037;-78
2022/10/15 09:03:39;;;;;;;47.55;23.52;;;14.90;99.90;;;;;;4972742;28;20046;-79
2022/10/15 09:06:11;;;;;;;45.05;23.73;;;15.10;99.90;;;;;;5020933;28;20021;-81
2022/10/15 09:08:47;;;;;;;43.92;23.13;;;15.20;99.90;;;;;;4991781;28;20402;-80
2022/10/15 09:11:34;;;;;;;43.63;24.00;;;15.20;99.90;;;;;;5023312;28;20038;-80
2022/10/15 09:14:03;;;;;;;41.75;22.25;;;15.60;99.90;;;;;;5016378;28;20550;-80
2022/10/15 09:16:34;;;;;;;40.17;21.05;;;15.40;99.90;;;;;;5012640;28;20453;-78
2022/10/15 09:19:03;;;;;;;40.88;21.35;;;15.50;99.90;;;;;;5002434;28;20030;-78
2022/10/15 09:21:30;;;;;;;44.17;22.38;;;15.40;99.90;;;;;;5003162;28;20462;-79
2022/10/15 09:24:01;;;;;;;41.63;22.40;;;15.50;99.90;;;;;;5015115;28;20076;-78
2022/10/15 09:26:47;;;;;;;38.20;21.20;;;15.30;99.90;;;;;;5011532;28;20076;-79
2022/10/15 09:29:21;;;;;;;43.58;22.85;;;15.20;99.90;;;;;;5008534;28;20064;-78
2022/10/15 09:32:02;;;;;;;40.28;20.65;;;14.90;99.90;;;;;;5016595;28;20089;-79
2022/10/15 09:34:46;;;;;;;41.15;20.52;;;14.70;99.90;;;;;;5003568;28;20060;-78
2022/10/15 09:37:20;;;;;;;42.95;21.75;;;14.90;99.90;;;;;;4996345;28;20038;-78
2022/10/15 09:39:52;;;;;;;37.70;20.38;;;14.90;99.90;;;;;;4985403;28;20053;-79
2022/10/15 09:42:26;;;;;;;37.00;19.63;;;14.80;99.90;;;;;;5001940;28;20038;-78
2022/10/15 09:44:53;;;;;;;38.83;19.42;;;14.70;99.90;;;;;;4995881;28;20042;-78
2022/10/15 09:47:25;;;;;;;33.55;16.52;;;14.90;99.90;;;;;;5008755;28;20084;-78
2022/10/15 09:49:51;;;;;;;41.83;17.30;;;14.80;99.90;;;;;;5005233;28;20022;-78
2022/10/15 09:52:43;;;;;;;42.60;17.20;;;14.90;99.90;;;;;;4998886;28;20030;-79
2022/10/15 09:55:26;;;;;;;36.00;16.10;;;15.40;99.90;;;;;;5006384;28;20463;-79
2022/10/15 09:57:57;;;;;;;35.40;17.17;;;15.20;99.90;;;;;;4999799;28;20026;-78
2022/10/15 10:00:22;;;;;;;35.58;16.85;;;15.40;99.90;;;;;;4999814;28;20516;-77
2022/10/15 10:03:06;;;;;;;32.38;13.82;;;15.60;99.90;;;;;;4992851;28;20026;-77
2022/10/15 10:05:35;;;;;;;35.55;16.30;;;15.50;99.90;;;;;;4994300;28;20038;-78
2022/10/15 10:08:09;;;;;;;38.78;16.85;;;15.50;99.90;;;;;;5000342;28;20030;-78
2022/10/15 10:10:36;;;;;;;39.75;17.23;;;15.60;99.90;;;;;;4999377;28;20015;-78
2022/10/15 10:13:07;;;;;;;37.95;16.98;;;15.30;99.90;;;;;;5001159;28;20567;-78
2022/10/15 10:15:40;;;;;;;41.00;18.35;;;15.50;99.90;;;;;;4997247;28;20053;-78
2022/10/15 10:18:21;;;;;;;36.45;17.20;;;15.50;99.90;;;;;;4994680;28;20026;-78
2022/10/15 10:20:59;;;;;;;36.85;17.88;;;15.50;99.90;;;;;;4996422;28;20478;-78
2022/10/15 10:23:36;;;;;;;39.92;17.83;;;15.60;99.90;;;;;;5014686;28;20026;-78
2022/10/15 10:26:05;;;;;;;35.47;17.25;;;15.70;99.90;;;;;;5007250;28;20045;-78
2022/10/15 10:28:39;;;;;;;32.20;15.85;;;15.50;99.90;;;;;;5001540;28;20117;-78
2022/10/15 10:31:08;;;;;;;32.05;14.90;;;15.60;99.90;;;;;;5005078;28;20083;-78
2022/10/15 10:33:36;;;;;;;30.40;15.02;;;15.50;99.90;;;;;;5020619;28;20657;-78
2022/10/15 10:36:04;;;;;;;32.35;16.17;;;15.40;99.90;;;;;;5002647;28;20022;-78
2022/10/15 10:38:36;;;;;;;28.13;14.18;;;15.60;99.90;;;;;;4994400;28;20498;-78
2022/10/15 10:41:07;;;;;;;29.42;15.00;;;15.50;99.90;;;;;;5003981;28;20030;-78
2022/10/15 10:43:37;;;;;;;26.02;13.52;;;15.50;99.90;;;;;;5002668;28;20050;-78
2022/10/15 10:46:13;;;;;;;26.33;13.75;;;15.70;99.90;;;;;;5005145;28;20027;-78
2022/10/15 10:48:45;;;;;;;24.35;12.68;;;15.60;99.90;;;;;;5009534;28;20022;-78
2022/10/15 10:51:23;;;;;;;25.05;13.73;;;16.00;99.90;;;;;;5003588;28;20026;-78
2022/10/15 10:53:59;;;;;;;27.42;13.98;;;16.50;99.90;;;;;;5000297;28;20054;-78
2022/10/15 10:56:32;;;;;;;26.35;14.15;;;17.50;99.90;;;;;;4998474;28;20065;-78
2022/10/15 10:59:03;;;;;;;22.73;12.30;;;18.00;99.90;;;;;;4993786;28;20030;-78
2022/10/15 11:01:28;;;;;;;25.25;14.43;;;17.90;99.90;;;;;;4993697;28;20034;-78
2022/10/15 11:03:54;;;;;;;23.38;13.18;;;17.60;99.90;;;;;;4993115;28;20034;-78
2022/10/15 11:06:43;;;;;;;24.52;13.10;;;18.10;99.90;;;;;;4999928;28;20034;-77
2022/10/15 11:09:30;;;;;;;19.55;11.80;;;18.40;99.90;;;;;;5004568;28;20615;-78
2022/10/15 11:12:20;;;;;;;17.40;10.18;;;18.20;99.90;;;;;;5015218;28;20026;-78
2022/10/15 11:15:04;;;;;;;21.80;12.98;;;18.20;99.90;;;;;;5000028;28;20030;-78
2022/10/15 11:17:46;;;;;;;20.42;12.13;;;18.30;87.50;;;;;;4998765;28;20493;-78
2022/10/15 11:20:20;;;;;;;18.42;10.18;;;18.30;95.80;;;;;;4999145;28;20096;-78
2022/10/15 11:23:22;;;;;;;18.48;10.90;;;18.50;90.00;;;;;;4998128;28;20087;-77
2022/10/15 11:25:48;;;;;;;17.73;10.77;;;18.50;90.60;;;;;;5001529;28;20286;-78
2022/10/15 11:28:30;;;;;;;14.77;10.00;;;18.40;81.80;;;;;;5007027;28;20032;-78
2022/10/15 11:31:21;;;;;;;16.85;9.40;;;18.50;78.30;;;;;;5003392;28;20389;-79
2022/10/15 11:33:55;;;;;;;14.55;9.10;;;18.50;80.50;;;;;;4999142;28;20054;-78
2022/10/15 11:36:40;;;;;;;15.63;9.52;;;18.30;80.10;;;;;;5003307;28;20057;-78
2022/10/15 11:39:11;;;;;;;15.75;9.65;;;18.30;75.50;;;;;;5009482;28;20556;-78
2022/10/15 11:41:54;;;;;;;16.05;9.85;;;18.20;78.80;;;;;;5013038;28;20026;-78
2022/10/15 11:44:29;;;;;;;15.25;9.75;;;18.30;79.90;;;;;;5012913;28;20073;-78
2022/10/15 11:47:22;;;;;;;13.68;9.10;;;18.20;84.70;;;;;;5013279;28;20033;-79
2022/10/15 11:49:53;;;;;;;14.82;10.00;;;18.30;69.80;;;;;;5003833;28;20026;-80
2022/10/15 11:52:26;;;;;;;15.05;9.35;;;18.20;72.90;;;;;;5002994;28;20609;-80
2022/10/15 11:55:16;;;;;;;14.40;10.00;;;18.40;77.80;;;;;;5007749;28;20593;-80
2022/10/15 11:57:43;;;;;;;;;;;18.60;72.60;;;;;;5023461;28;20504;-79
2022/10/15 12:00:24;;;;;;;13.88;9.18;;;18.70;74.10;;;;;;5013856;28;19979;-79
2022/10/15 12:02:50;;;;;;;14.20;9.05;;;18.70;68.30;;;;;;5009602;28;20037;-79
2022/10/15 12:05:26;;;;;;;13.40;8.73;;;18.80;69.40;;;;;;5023440;28;20022;-76
2022/10/15 12:07:53;;;;;;;14.90;9.43;;;18.30;56.90;;;;;;5007483;28;20101;-77
2022/10/15 12:10:42;;;;;;;12.55;8.57;;;18.40;69.70;;;;;;5005826;28;20034;-76
2022/10/15 12:13:18;;;;;;;11.52;7.38;;;18.00;67.80;;;;;;4999069;28;20373;-77
2022/10/15 12:16:01;;;;;;;14.15;9.57;;;17.90;75.30;;;;;;5004866;28;20030;-77
2022/10/15 12:18:42;;;;;;;13.80;9.57;;;18.10;74.10;;;;;;5002243;28;20492;-76
2022/10/15 12:21:37;;;;;;;14.27;9.50;;;18.10;70.30;;;;;;5009783;28;20457;-77
2022/10/15 12:24:09;;;;;;;14.25;9.65;;;18.00;76.10;;;;;;5009915;28;20021;-77
2022/10/15 12:26:35;;;;;;;13.30;9.45;;;17.50;78.30;;;;;;5005086;28;20026;-77
2022/10/15 12:29:04;;;;;;;11.45;8.60;;;17.40;80.80;;;;;;5009906;28;20022;-79
2022/10/15 12:31:45;;;;;;;11.55;9.02;;;17.10;89.40;;;;;;5013572;28;20046;-80
2022/10/15 12:34:40;;;;;;;11.82;8.32;;;17.00;93.30;;;;;;5006986;28;20054;-82
2022/10/15 12:37:17;;;;;;;13.35;9.48;;;16.80;99.90;;;;;;4996278;28;20046;-79
2022/10/15 12:39:44;;;;;;;12.70;9.10;;;17.00;99.90;;;;;;5004660;28;20027;-79
2022/10/15 12:42:37;;;;;;;13.73;9.07;;;17.10;99.90;;;;;;5004744;28;20026;-78
2022/10/15 12:45:18;;;;;;;12.93;9.07;;;17.10;99.90;;;;;;5006301;28;20040;-79
2022/10/15 12:47:54;;;;;;;12.70;8.85;;;17.50;99.90;;;;;;5009218;28;20060;-77
2022/10/15 12:50:25;;;;;;;11.82;8.48;;;17.40;94.80;;;;;;5003823;28;20054;-78
2022/10/15 12:52:53;;;;;;;10.70;7.97;;;17.30;96.30;;;;;;5008469;28;20034;-76
2022/10/15 12:55:26;;;;;;;10.55;7.18;;;17.10;99.10;;;;;;4990944;28;20060;-77